createdAt,value
2022-10-26T00:01:56.789Z,13.72
2022-10-26T00:04:24.280Z,13.82
2022-10-26T00:06:51.717Z,13.48
2022-10-26T00:09:19.184Z,13.23
2022-10-26T00:11:47.998Z,13.45
2022-10-26T00:14:15.449Z,13.50
2022-10-26T00:16:42.929Z,13.55
2022-10-26T00:19:10.489Z,13.51
2022-10-26T00:21:37.964Z,13.51
2022-10-26T00:24:05.609Z,13.49
2022-10-26T00:26:33.154Z,13.39
2022-10-26T00:29:02.221Z,13.75
2022-10-26T00:31:29.746Z,13.77
2022-10-26T00:33:57.656Z,13.28
2022-10-26T00:36:25.745Z,13.53
2022-10-26T00:38:53.584Z,13.61
2022-10-26T00:41:21.812Z,13.46
2022-10-26T00:43:49.653Z,13.43
2022-10-26T00:46:19.717Z,13.50
2022-10-26T00:48:47.882Z,13.29
2022-10-26T00:51:16.942Z,13.55
2022-10-26T00:53:44.376Z,13.61
2022-10-26T00:56:11.862Z,13.54
2022-10-26T00:58:39.361Z,13.45
2022-10-26T01:01:06.877Z,13.37
2022-10-26T01:03:36.037Z,13.62
2022-10-26T01:06:03.522Z,13.77
2022-10-26T01:08:30.962Z,13.42
2022-10-26T01:10:58.668Z,13.46
2022-10-26T01:13:26.348Z,13.61
2022-10-26T01:15:56.396Z,13.33
2022-10-26T01:18:25.227Z,13.37
2022-10-26T01:21:05.465Z,13.21
2022-10-26T01:23:33.444Z,13.55
2022-10-26T01:26:14.495Z,13.55
2022-10-26T01:28:47.208Z,13.53
2022-10-26T01:31:16.898Z,13.43
2022-10-26T01:33:45.748Z,13.50
2022-10-26T01:36:13.772Z,13.50
2022-10-26T01:38:43.968Z,13.33
2022-10-26T01:41:13.294Z,13.16
2022-10-26T01:43:41.384Z,13.24
2022-10-26T01:46:08.880Z,13.04
2022-10-26T01:48:37.792Z,13.19
2022-10-26T01:51:05.311Z,13.16
2022-10-26T01:53:32.876Z,13.35
2022-10-26T01:56:00.376Z,13.28
2022-10-26T01:58:42.725Z,13.18
2022-10-26T02:01:12.507Z,13.25
2022-10-26T02:03:41.543Z,13.30
2022-10-26T02:06:11.245Z,13.04
2022-10-26T02:08:43.733Z,13.20
2022-10-26T02:11:13.175Z,13.16
2022-10-26T02:13:42.609Z,13.27
2022-10-26T02:16:12.036Z,13.36
2022-10-26T02:18:42.266Z,13.28
2022-10-26T02:21:10.657Z,13.58
2022-10-26T02:23:38.809Z,13.61
2022-10-26T02:26:06.976Z,13.51
2022-10-26T02:28:35.194Z,13.43
2022-10-26T02:31:02.876Z,13.52
2022-10-26T02:33:30.856Z,13.51
2022-10-26T02:36:00.024Z,13.15
2022-10-26T02:38:27.521Z,13.15
2022-10-26T02:40:55.008Z,12.96
2022-10-26T02:43:23.233Z,12.92
2022-10-26T02:45:52.105Z,13.48
2022-10-26T02:48:19.589Z,13.46
2022-10-26T02:50:50.023Z,13.27
2022-10-26T02:53:19.817Z,13.31
2022-10-26T02:55:48.086Z,12.92
2022-10-26T02:58:16.348Z,13.26
2022-10-26T03:00:43.940Z,13.57
2022-10-26T03:03:11.416Z,13.67
2022-10-26T03:05:42.042Z,13.17
2022-10-26T03:08:09.769Z,13.45
2022-10-26T03:10:40.539Z,13.61
2022-10-26T03:13:07.979Z,13.56
2022-10-26T03:15:35.442Z,13.39
2022-10-26T03:18:02.931Z,13.25
2022-10-26T03:20:30.425Z,13.21
2022-10-26T03:22:57.882Z,13.44
2022-10-26T03:25:25.492Z,13.68
2022-10-26T03:27:58.720Z,13.44
2022-10-26T03:30:26.286Z,13.30
2022-10-26T03:32:53.740Z,13.35
2022-10-26T03:35:21.269Z,13.21
2022-10-26T03:37:50.368Z,13.28
2022-10-26T03:40:18.109Z,13.19
2022-10-26T03:42:45.578Z,13.09
2022-10-26T03:45:14.410Z,13.27
2022-10-26T03:47:43.781Z,13.17
2022-10-26T03:50:11.286Z,13.11
2022-10-26T03:52:38.756Z,13.21
2022-10-26T03:55:06.648Z,13.12
2022-10-26T03:57:34.117Z,12.50
2022-10-26T04:00:01.586Z,12.82
2022-10-26T04:02:30.401Z,12.77
2022-10-26T04:04:57.880Z,13.13
2022-10-26T04:07:25.317Z,13.10
2022-10-26T04:09:52.781Z,12.70
2022-10-26T04:12:20.252Z,12.80
2022-10-26T04:14:47.729Z,12.58
2022-10-26T04:17:15.188Z,13.23
2022-10-26T04:19:43.969Z,12.80
2022-10-26T04:22:11.558Z,12.81
2022-10-26T04:24:39.048Z,13.15
2022-10-26T04:27:06.480Z,12.80
2022-10-26T04:29:33.950Z,12.88
2022-10-26T04:32:01.389Z,12.79
2022-10-26T04:34:28.869Z,13.41
2022-10-26T04:36:57.659Z,12.87
2022-10-26T04:39:25.702Z,13.12
2022-10-26T04:41:53.160Z,13.24
2022-10-26T04:44:20.601Z,12.82
2022-10-26T04:46:48.061Z,13.06
2022-10-26T04:49:15.583Z,12.91
2022-10-26T04:51:43.172Z,12.88
2022-10-26T04:54:11.996Z,13.28
2022-10-26T04:56:39.529Z,13.16
2022-10-26T04:59:07.021Z,13.26
2022-10-26T05:01:34.736Z,12.85
2022-10-26T05:04:02.281Z,12.96
2022-10-26T05:06:30.204Z,13.23
2022-10-26T05:08:57.640Z,13.08
2022-10-26T05:11:26.466Z,12.69
2022-10-26T05:13:53.906Z,13.37
2022-10-26T05:16:21.349Z,13.10
2022-10-26T05:18:48.971Z,13.24
2022-10-26T05:21:19.374Z,13.42
2022-10-26T05:23:51.141Z,13.46
2022-10-26T05:26:18.602Z,13.27
2022-10-26T05:28:47.422Z,13.20
2022-10-26T05:31:14.889Z,13.31
2022-10-26T05:33:42.360Z,13.54
2022-10-26T05:36:09.885Z,13.32
2022-10-26T05:38:37.339Z,13.46
2022-10-26T05:41:04.835Z,13.45
2022-10-26T05:43:32.301Z,13.58
2022-10-26T05:46:01.117Z,13.54
2022-10-26T05:48:28.598Z,13.76
2022-10-26T05:50:56.032Z,13.69
2022-10-26T05:53:23.514Z,13.52
2022-10-26T05:55:51.212Z,13.52
2022-10-26T05:58:19.106Z,13.72
2022-10-26T06:00:51.665Z,13.40
2022-10-26T06:03:23.567Z,13.34
2022-10-26T06:05:53.260Z,13.74
2022-10-26T06:08:21.016Z,13.59
2022-10-26T06:10:49.285Z,13.44
2022-10-26T06:13:17.181Z,13.31
2022-10-26T06:15:47.110Z,13.32
2022-10-26T06:18:15.342Z,13.37
2022-10-26T06:20:48.078Z,13.40
2022-10-26T06:23:20.309Z,13.76
2022-10-26T06:25:55.941Z,13.51
2022-10-26T06:31:03.032Z,13.66
2022-10-26T06:33:31.261Z,13.26
2022-10-26T06:36:09.638Z,13.27
2022-10-26T06:38:38.210Z,13.56
2022-10-26T06:41:06.445Z,13.18
2022-10-26T06:43:36.631Z,13.25
2022-10-26T06:46:14.669Z,13.58
2022-10-26T06:48:51.081Z,13.04
2022-10-26T06:51:21.134Z,13.19
2022-10-26T06:53:54.217Z,13.43
2022-10-26T06:56:24.204Z,13.65
2022-10-26T06:58:53.398Z,13.38
2022-10-26T07:01:21.440Z,13.50
2022-10-26T07:03:49.199Z,13.04
2022-10-26T07:06:16.845Z,13.19
2022-10-26T07:08:45.845Z,13.30
2022-10-26T07:11:13.875Z,13.45
2022-10-26T07:13:41.522Z,13.24
2022-10-26T07:16:09.191Z,13.46
2022-10-26T07:18:36.816Z,13.12
2022-10-26T07:21:04.573Z,13.41
2022-10-26T07:23:32.219Z,13.74
2022-10-26T07:26:01.944Z,14.17
2022-10-26T07:28:29.610Z,13.90
2022-10-26T07:30:59.489Z,14.23
2022-10-26T07:33:27.143Z,14.28
2022-10-26T07:35:56.016Z,14.37
2022-10-26T07:38:23.652Z,14.62
2022-10-26T07:40:54.178Z,14.92
2022-10-26T07:43:23.210Z,14.97
2022-10-26T07:45:51.643Z,15.63
2022-10-26T07:48:19.281Z,15.56
2022-10-26T07:50:46.981Z,15.38
2022-10-26T07:53:14.736Z,15.50
2022-10-26T07:55:42.359Z,15.55
2022-10-26T07:58:10.008Z,15.01
2022-10-26T08:00:39.040Z,15.37
2022-10-26T08:03:06.725Z,15.64
2022-10-26T08:05:34.358Z,15.34
2022-10-26T08:08:01.998Z,15.57
2022-10-26T08:10:29.658Z,15.34
2022-10-26T08:12:57.285Z,15.68
2022-10-26T08:15:24.914Z,15.28
2022-10-26T08:17:53.907Z,15.95
2022-10-26T08:20:21.644Z,15.71
2022-10-26T08:22:49.536Z,15.50
2022-10-26T08:25:20.475Z,15.64
2022-10-26T08:27:49.377Z,15.46
2022-10-26T08:30:17.413Z,15.99
2022-10-26T08:32:45.063Z,15.17
2022-10-26T08:35:14.165Z,15.67
2022-10-26T08:37:41.852Z,15.87
2022-10-26T08:40:13.139Z,15.79
2022-10-26T08:42:44.122Z,16.08
2022-10-26T08:45:17.933Z,16.32
2022-10-26T08:47:48.120Z,15.85
2022-10-26T08:50:22.754Z,16.48
2022-10-26T08:52:54.053Z,16.42
2022-10-26T08:55:26.683Z,16.42
2022-10-26T08:57:54.761Z,17.01
2022-10-26T09:00:24.111Z,17.24
2022-10-26T09:02:52.025Z,17.20
2022-10-26T09:05:30.441Z,17.10
2022-10-26T09:08:06.249Z,17.35
2022-10-26T09:10:39.630Z,17.71
2022-10-26T09:13:15.198Z,17.27
2022-10-26T09:15:52.281Z,17.87
2022-10-26T09:18:29.205Z,17.99
2022-10-26T09:21:12.310Z,17.56
2022-10-26T09:23:52.958Z,18.43
2022-10-26T09:26:29.933Z,18.48
2022-10-26T09:28:58.845Z,18.03
2022-10-26T09:31:26.941Z,18.12
2022-10-26T09:33:55.331Z,18.73
2022-10-26T09:36:24.421Z,19.12
2022-10-26T09:38:56.526Z,18.80
2022-10-26T09:41:29.573Z,18.46
2022-10-26T09:44:03.909Z,18.51
2022-10-26T09:46:34.691Z,18.73
2022-10-26T09:49:06.641Z,19.42
2022-10-26T09:51:37.720Z,19.42
2022-10-26T09:54:09.133Z,19.31
2022-10-26T09:56:37.930Z,19.71
2022-10-26T09:59:07.118Z,20.08
2022-10-26T10:01:39.873Z,19.71
2022-10-26T10:04:16.719Z,19.85
2022-10-26T10:06:46.362Z,20.35
2022-10-26T10:09:15.155Z,20.24
2022-10-26T10:11:44.911Z,20.05
2022-10-26T10:14:17.658Z,19.95
2022-10-26T10:16:53.072Z,19.93
2022-10-26T10:19:24.347Z,20.24
2022-10-26T10:21:56.374Z,20.41
2022-10-26T10:24:26.000Z,20.47
2022-10-26T10:27:04.892Z,20.77
2022-10-26T10:29:33.773Z,20.05
2022-10-26T10:32:03.010Z,20.70
2022-10-26T10:34:31.853Z,20.07
2022-10-26T10:37:01.685Z,21.04
2022-10-26T10:39:38.697Z,20.36
2022-10-26T10:42:12.177Z,20.66
2022-10-26T10:44:39.992Z,21.22
2022-10-26T10:47:08.504Z,21.06
2022-10-26T10:49:36.142Z,21.26
2022-10-26T10:52:05.531Z,21.21
2022-10-26T10:54:35.104Z,21.32
2022-10-26T10:57:12.804Z,20.85
2022-10-26T10:59:53.718Z,20.78
2022-10-26T11:02:58.458Z,21.03
2022-10-26T11:05:34.773Z,21.38
2022-10-26T11:08:08.922Z,21.13
2022-10-26T11:10:39.643Z,20.91
2022-10-26T11:13:14.518Z,21.84
2022-10-26T11:15:42.440Z,21.71
2022-10-26T11:18:14.293Z,22.22
2022-10-26T11:20:46.041Z,22.26
2022-10-26T11:23:20.837Z,21.57
2022-10-26T11:25:51.061Z,22.02
2022-10-26T11:28:21.919Z,21.81
2022-10-26T11:30:54.512Z,21.12
2022-10-26T11:33:24.623Z,21.76
2022-10-26T11:35:56.827Z,21.30
2022-10-26T11:38:45.388Z,21.09
2022-10-26T11:41:19.556Z,20.87
2022-10-26T11:43:48.517Z,21.57
2022-10-26T11:46:19.503Z,20.94
2022-10-26T11:48:51.188Z,20.89
2022-10-26T11:51:23.402Z,21.53
2022-10-26T11:53:52.744Z,22.13
2022-10-26T11:56:28.586Z,21.57
2022-10-26T11:58:57.662Z,22.31
2022-10-26T12:01:25.567Z,21.70
2022-10-26T12:03:55.417Z,21.83
2022-10-26T12:06:26.833Z,21.80
2022-10-26T12:09:00.731Z,22.01
2022-10-26T12:11:37.290Z,21.68
2022-10-26T12:14:13.146Z,22.53
2022-10-26T12:16:47.302Z,21.91
2022-10-26T12:19:19.273Z,21.38
2022-10-26T12:21:48.922Z,21.77
2022-10-26T12:24:29.094Z,22.02
2022-10-26T12:26:57.836Z,21.29
2022-10-26T12:29:40.098Z,21.36
2022-10-26T12:32:50.567Z,21.55
2022-10-26T12:35:42.782Z,21.86
2022-10-26T12:39:00.136Z,22.10
2022-10-26T12:41:29.573Z,20.98
2022-10-26T12:44:07.499Z,22.25
2022-10-26T12:46:42.000Z,22.00
2022-10-26T12:49:54.579Z,22.16
2022-10-26T12:52:41.830Z,22.23
2022-10-26T12:55:46.245Z,22.48
2022-10-26T12:58:28.993Z,21.87
2022-10-26T13:01:30.100Z,21.93
2022-10-26T13:04:07.023Z,22.54
2022-10-26T13:06:45.334Z,22.57
2022-10-26T13:09:19.820Z,22.46
2022-10-26T13:11:50.478Z,22.04
2022-10-26T13:14:23.170Z,22.57
2022-10-26T13:16:51.064Z,22.52
2022-10-26T13:19:26.418Z,22.49
2022-10-26T13:21:54.312Z,22.88
2022-10-26T13:24:24.673Z,22.78
2022-10-26T13:27:29.060Z,23.13
2022-10-26T13:30:46.663Z,22.54
2022-10-26T13:33:23.692Z,21.66
2022-10-26T13:35:54.759Z,22.36
2022-10-26T13:38:25.371Z,22.09
2022-10-26T13:40:57.609Z,22.05
2022-10-26T13:43:26.338Z,22.09
2022-10-26T13:45:57.674Z,22.03
2022-10-26T13:48:31.466Z,21.58
2022-10-26T13:51:01.254Z,21.93
2022-10-26T13:53:40.423Z,21.90
2022-10-26T13:56:16.665Z,21.56
2022-10-26T13:58:47.147Z,22.03
2022-10-26T14:01:18.118Z,21.83
2022-10-26T14:03:46.041Z,21.89
2022-10-26T14:06:18.364Z,22.04
2022-10-26T14:08:49.385Z,21.89
2022-10-26T14:11:19.600Z,21.00
2022-10-26T14:13:48.313Z,20.63
2022-10-26T14:16:20.340Z,20.48
2022-10-26T14:18:48.775Z,21.43
2022-10-26T14:21:16.884Z,21.58
2022-10-26T14:23:49.869Z,21.61
2022-10-26T14:26:22.051Z,21.81
2022-10-26T14:28:51.567Z,21.33
2022-10-26T14:31:26.056Z,22.13
2022-10-26T14:33:54.008Z,21.67
2022-10-26T14:36:23.681Z,20.89
2022-10-26T14:38:52.209Z,21.50
2022-10-26T14:41:19.681Z,21.03
2022-10-26T14:43:47.160Z,21.87
2022-10-26T14:46:15.339Z,21.68
2022-10-26T14:48:50.897Z,21.04
2022-10-26T14:51:19.273Z,21.14
2022-10-26T14:53:48.956Z,21.50
2022-10-26T14:56:22.029Z,21.55
2022-10-26T14:58:50.037Z,21.52
2022-10-26T15:01:31.893Z,21.27
2022-10-26T15:04:06.406Z,21.65
2022-10-26T15:06:41.042Z,21.47
2022-10-26T15:09:30.894Z,21.27
2022-10-26T15:11:58.716Z,21.41
2022-10-26T15:14:26.550Z,21.11
2022-10-26T15:16:55.925Z,21.44
2022-10-26T15:19:25.664Z,21.12
2022-10-26T15:21:54.223Z,21.24
2022-10-26T15:24:33.193Z,21.48
2022-10-26T15:27:03.985Z,21.39
2022-10-26T15:29:38.876Z,20.54
2022-10-26T15:32:18.093Z,21.03
2022-10-26T15:34:50.688Z,20.77
2022-10-26T15:37:18.510Z,20.91
2022-10-26T15:39:46.177Z,20.88
2022-10-26T15:42:14.807Z,21.02
2022-10-26T15:44:42.470Z,21.18
2022-10-26T15:47:18.158Z,21.05
2022-10-26T15:49:45.792Z,20.78
2022-10-26T15:52:15.096Z,20.91
2022-10-26T15:54:42.749Z,20.60
2022-10-26T15:57:15.521Z,20.78
2022-10-26T15:59:45.622Z,20.41
2022-10-26T16:02:14.966Z,20.55
2022-10-26T16:04:42.708Z,19.97
2022-10-26T16:07:15.057Z,20.25
2022-10-26T16:09:44.163Z,20.01
2022-10-26T16:12:12.249Z,19.61
2022-10-26T16:15:04.196Z,20.12
2022-10-26T16:17:27.978Z,20.36
2022-10-26T16:19:55.654Z,20.03
2022-10-26T16:22:25.106Z,19.78
2022-10-26T16:24:52.754Z,20.21
2022-10-26T16:27:20.400Z,19.93
2022-10-26T16:29:48.057Z,20.09
2022-10-26T16:32:15.686Z,20.10
2022-10-26T16:34:43.310Z,20.19
2022-10-26T16:37:11.001Z,20.29
2022-10-26T16:39:40.002Z,20.14
2022-10-26T16:42:07.742Z,19.94
2022-10-26T16:44:36.409Z,20.22
2022-10-26T16:47:04.096Z,20.46
2022-10-26T16:49:31.755Z,20.50
2022-10-26T16:51:59.381Z,20.68
2022-10-26T16:54:27.020Z,20.69
2022-10-26T16:56:56.061Z,20.84
2022-10-26T16:59:23.705Z,21.02
2022-10-26T17:01:51.429Z,20.97
2022-10-26T17:04:19.364Z,20.77
2022-10-26T17:06:47.034Z,20.80
2022-10-26T17:09:15.187Z,20.91
2022-10-26T17:11:42.979Z,21.18
2022-10-26T17:14:11.978Z,21.20
2022-10-26T17:16:39.595Z,21.16
2022-10-26T17:19:07.246Z,21.17
2022-10-26T17:21:36.289Z,21.07
2022-10-26T17:24:04.215Z,21.18
2022-10-26T17:26:31.841Z,21.21
2022-10-26T17:28:59.735Z,21.28
2022-10-26T17:31:28.955Z,21.45
2022-10-26T17:33:57.527Z,21.48
2022-10-26T17:36:26.288Z,21.41
2022-10-26T17:38:55.089Z,21.52
2022-10-26T17:41:23.247Z,21.51
2022-10-26T17:43:51.515Z,21.48
2022-10-26T17:46:20.560Z,21.34
2022-10-26T17:48:49.602Z,21.39
2022-10-26T17:51:19.189Z,21.35
2022-10-26T17:53:48.997Z,20.98
2022-10-26T17:56:18.993Z,20.74
2022-10-26T17:58:46.628Z,20.39
2022-10-26T18:01:14.541Z,20.41
2022-10-26T18:03:42.573Z,20.29
2022-10-26T18:06:11.713Z,20.25
2022-10-26T18:08:39.933Z,19.95
2022-10-26T18:11:08.731Z,19.91
2022-10-26T18:13:36.393Z,20.03
2022-10-26T18:16:05.176Z,19.92
2022-10-26T18:18:33.593Z,19.71
2022-10-26T18:21:01.995Z,19.98
2022-10-26T18:23:31.066Z,20.15
2022-10-26T18:26:04.640Z,20.19
2022-10-26T18:28:35.119Z,20.22
2022-10-26T18:31:04.742Z,20.01
2022-10-26T18:33:32.867Z,20.51
2022-10-26T18:36:04.429Z,20.60
2022-10-26T18:38:34.158Z,20.51
2022-10-26T18:41:01.826Z,20.11
2022-10-26T18:43:30.278Z,19.57
2022-10-26T18:46:04.860Z,19.86
2022-10-26T18:48:34.108Z,20.05
2022-10-26T18:51:03.701Z,19.75
2022-10-26T18:53:34.296Z,19.78
2022-10-26T18:56:03.193Z,19.46
2022-10-26T18:58:31.703Z,19.49
2022-10-26T19:01:07.559Z,19.53
2022-10-26T19:03:35.734Z,19.67
2022-10-26T19:06:11.067Z,19.56
2022-10-26T19:08:40.133Z,19.47
2022-10-26T19:11:09.345Z,19.75
2022-10-26T19:13:37.278Z,19.44
2022-10-26T19:16:12.541Z,19.42
2022-10-26T19:18:50.193Z,19.33
2022-10-26T19:21:19.995Z,19.42
2022-10-26T19:23:50.235Z,18.97
2022-10-26T19:26:19.560Z,19.19
2022-10-26T19:28:47.607Z,19.32
2022-10-26T19:31:15.993Z,19.23
2022-10-26T19:33:43.673Z,18.90
2022-10-26T19:36:12.784Z,18.97
2022-10-26T19:38:40.666Z,19.13
2022-10-26T19:41:11.966Z,19.05
2022-10-26T19:43:40.001Z,18.90
2022-10-26T19:46:09.485Z,18.89
2022-10-26T19:48:37.197Z,19.03
2022-10-26T19:51:05.363Z,19.14
2022-10-26T19:53:32.990Z,19.20
2022-10-26T19:56:03.023Z,18.76
2022-10-26T19:58:32.850Z,19.00
2022-10-26T20:01:02.079Z,18.93
2022-10-26T20:03:29.901Z,18.99
2022-10-26T20:05:58.445Z,19.16
2022-10-26T20:08:26.495Z,19.24
2022-10-26T20:10:55.481Z,19.06
2022-10-26T20:13:23.555Z,18.83
2022-10-26T20:15:53.303Z,18.78
2022-10-26T20:18:21.339Z,18.91
2022-10-26T20:20:49.242Z,19.06
2022-10-26T20:23:16.728Z,19.14
2022-10-26T20:25:45.488Z,19.10
2022-10-26T20:28:13.043Z,19.08
2022-10-26T20:30:41.950Z,19.01
2022-10-26T20:33:10.856Z,18.93
2022-10-26T20:35:38.433Z,19.00
2022-10-26T20:38:06.339Z,19.11
2022-10-26T20:40:34.309Z,19.25
2022-10-26T20:43:02.046Z,19.07
2022-10-26T20:45:30.276Z,18.96
2022-10-26T20:47:58.045Z,18.42
2022-10-26T20:50:27.949Z,18.92
2022-10-26T20:52:56.896Z,18.72
2022-10-26T20:55:28.672Z,18.97
2022-10-26T20:57:57.344Z,18.70
2022-10-26T21:00:24.993Z,18.85
2022-10-26T21:02:52.715Z,18.84
2022-10-26T21:05:20.982Z,18.53
2022-10-26T21:07:49.876Z,18.59
2022-10-26T21:10:17.449Z,18.79
2022-10-26T21:12:45.389Z,18.92
2022-10-26T21:15:12.857Z,18.57
2022-10-26T21:17:40.325Z,18.66
2022-10-26T21:20:08.836Z,18.78
2022-10-26T21:22:36.462Z,18.94
2022-10-26T21:25:05.469Z,18.97
2022-10-26T21:27:32.902Z,18.83
2022-10-26T21:30:00.406Z,18.71
2022-10-26T21:32:27.973Z,18.57
2022-10-26T21:34:55.577Z,18.57
2022-10-26T21:37:25.625Z,18.79
2022-10-26T21:39:53.170Z,18.91
2022-10-26T21:42:22.095Z,18.92
2022-10-26T21:44:49.574Z,19.01
2022-10-26T21:47:17.106Z,18.79
2022-10-26T21:49:44.610Z,18.42
2022-10-26T21:52:12.048Z,18.49
2022-10-26T21:54:39.509Z,18.48
2022-10-26T21:57:06.981Z,18.55
2022-10-26T21:59:35.777Z,18.65
2022-10-26T22:02:03.344Z,18.49
2022-10-26T22:04:30.941Z,18.55
2022-10-26T22:06:58.400Z,18.47
2022-10-26T22:09:25.880Z,18.18
2022-10-26T22:11:53.368Z,18.49
2022-10-26T22:14:21.011Z,18.31
2022-10-26T22:16:49.821Z,18.40
2022-10-26T22:19:17.253Z,18.51
2022-10-26T22:21:44.720Z,18.31
2022-10-26T22:24:12.406Z,18.28
2022-10-26T22:26:39.887Z,18.50
2022-10-26T22:29:07.322Z,17.96
2022-10-26T22:31:35.529Z,18.16
2022-10-26T22:34:07.606Z,18.38
2022-10-26T22:36:35.871Z,18.46
2022-10-26T22:39:03.406Z,18.38
2022-10-26T22:41:30.902Z,18.38
2022-10-26T22:43:58.405Z,18.29
2022-10-26T22:46:26.508Z,18.54
2022-10-26T22:48:54.021Z,18.60
2022-10-26T22:51:24.864Z,18.25
2022-10-26T22:53:52.525Z,18.02
2022-10-26T22:56:20.150Z,18.36
2022-10-26T22:58:47.652Z,18.24
2022-10-26T23:01:15.824Z,18.16
2022-10-26T23:03:43.520Z,17.97
2022-10-26T23:06:11.679Z,17.84
2022-10-26T23:08:40.589Z,18.22
2022-10-26T23:11:08.562Z,18.17
2022-10-26T23:13:36.038Z,18.17
2022-10-26T23:16:05.339Z,18.32
2022-10-26T23:18:33.153Z,18.26
2022-10-26T23:21:00.700Z,18.23
2022-10-26T23:23:28.180Z,18.30
2022-10-26T23:26:00.195Z,18.07
2022-10-26T23:28:27.640Z,18.30
2022-10-26T23:30:55.136Z,18.26
2022-10-26T23:33:22.586Z,18.31
2022-10-26T23:35:50.905Z,18.15
2022-10-26T23:38:18.390Z,17.93
2022-10-26T23:40:49.801Z,18.07
2022-10-26T23:43:18.664Z,17.78
2022-10-26T23:45:46.137Z,17.61
2022-10-26T23:48:13.641Z,17.78
2022-10-26T23:50:42.142Z,17.92
2022-10-26T23:53:09.624Z,18.22
2022-10-26T23:55:37.062Z,17.98
2022-10-26T23:58:04.540Z,17.94
